createdAt,value
2018-04-14T00:00:06.647Z,6.23
2018-04-14T00:02:34.173Z,6.17
2018-04-14T00:05:01.778Z,5.40
2018-04-14T00:07:29.307Z,6.50
2018-04-14T00:09:56.824Z,5.73
2018-04-14T00:12:24.448Z,5.67
2018-04-14T00:14:52.007Z,6.00
2018-04-14T00:17:19.584Z,7.50
2018-04-14T00:19:47.142Z,7.80
2018-04-14T00:22:14.668Z,8.43
2018-04-14T00:24:42.262Z,7.90
2018-04-14T00:27:09.779Z,7.43
2018-04-14T00:29:37.299Z,7.40
2018-04-14T00:32:04.945Z,6.87
2018-04-14T00:34:32.459Z,7.07
2018-04-14T00:37:00.062Z,6.90
2018-04-14T00:39:27.623Z,6.70
2018-04-14T00:41:55.177Z,6.93
2018-04-14T00:44:22.701Z,6.80
2018-04-14T00:46:50.228Z,8.57
2018-04-14T00:49:17.759Z,8.57
2018-04-14T00:51:45.307Z,8.93
2018-04-14T00:54:12.837Z,9.10
2018-04-14T00:56:40.404Z,9.40
2018-04-14T00:59:07.956Z,10.07
2018-04-14T01:01:35.515Z,10.40
2018-04-14T01:04:03.121Z,12.00
2018-04-14T01:06:30.677Z,11.50
2018-04-14T01:08:58.237Z,11.70
2018-04-14T01:11:25.768Z,13.00
2018-04-14T01:13:54.147Z,12.97
2018-04-14T01:16:21.676Z,13.73
2018-04-14T01:18:49.232Z,13.93
2018-04-14T01:21:16.755Z,12.87
2018-04-14T01:23:44.284Z,13.50
2018-04-14T01:26:11.804Z,13.87
2018-04-14T01:28:39.849Z,13.53
2018-04-14T01:31:07.396Z,13.13
2018-04-14T01:33:34.922Z,13.30
2018-04-14T01:36:02.465Z,11.80
2018-04-14T01:38:30.086Z,12.57
2018-04-14T01:40:57.603Z,12.90
2018-04-14T01:43:25.206Z,13.47
2018-04-14T01:45:52.770Z,13.77
2018-04-14T01:48:20.298Z,13.40
2018-04-14T01:50:47.843Z,14.03
2018-04-14T01:53:15.435Z,14.23
2018-04-14T01:55:42.964Z,13.90
2018-04-14T01:58:10.570Z,15.57
2018-04-14T02:00:38.095Z,15.47
2018-04-14T02:03:05.696Z,16.20
2018-04-14T02:05:33.215Z,16.03
2018-04-14T02:08:00.900Z,17.07
2018-04-14T02:10:28.473Z,15.13
2018-04-14T02:12:56.001Z,15.77
2018-04-14T02:15:23.532Z,16.50
2018-04-14T02:17:51.127Z,16.40
2018-04-14T02:20:18.714Z,16.90
2018-04-14T02:22:46.260Z,17.13
2018-04-14T02:25:13.819Z,16.50
2018-04-14T02:27:41.351Z,16.70
2018-04-14T02:30:08.956Z,16.37
2018-04-14T02:32:36.507Z,18.17
2018-04-14T02:35:04.041Z,17.13
2018-04-14T02:37:31.568Z,16.70
2018-04-14T02:39:59.093Z,17.10
2018-04-14T02:42:26.653Z,16.67
2018-04-14T02:44:54.200Z,17.40
2018-04-14T02:47:21.739Z,18.17
2018-04-14T02:49:49.299Z,16.80
2018-04-14T02:52:16.832Z,18.27
2018-04-14T02:54:44.371Z,17.80
2018-04-14T02:57:11.895Z,17.57
2018-04-14T02:59:39.423Z,18.20
2018-04-14T03:02:07.036Z,19.03
2018-04-14T03:04:34.555Z,18.63
2018-04-14T03:07:02.091Z,17.87
2018-04-14T03:09:29.716Z,18.97
2018-04-14T03:11:57.235Z,18.80
2018-04-14T03:14:24.755Z,19.90
2018-04-14T03:16:52.395Z,19.13
2018-04-14T03:19:19.915Z,19.50
2018-04-14T03:21:47.515Z,19.47
2018-04-14T03:24:15.036Z,20.37
2018-04-14T03:26:42.619Z,21.00
2018-04-14T03:29:10.147Z,20.50
2018-04-14T03:31:37.711Z,20.30
2018-04-14T03:34:05.240Z,19.87
2018-04-14T03:36:32.770Z,19.80
2018-04-14T03:39:00.295Z,19.03
2018-04-14T03:41:27.899Z,18.50
2018-04-14T03:43:55.419Z,18.53
2018-04-14T03:46:23.039Z,18.83
2018-04-14T03:48:50.585Z,19.03
2018-04-14T03:51:18.115Z,20.37
2018-04-14T03:53:45.631Z,21.63
2018-04-14T03:56:13.182Z,21.47
2018-04-14T03:58:40.696Z,20.80
2018-04-14T04:01:08.225Z,22.87
2018-04-14T04:03:35.763Z,23.57
2018-04-14T04:06:03.386Z,23.80
2018-04-14T04:08:30.917Z,23.87
2018-04-14T04:10:58.444Z,23.77
2018-04-14T04:13:26.064Z,22.47
2018-04-14T04:15:53.583Z,23.10
2018-04-14T04:18:32.964Z,24.00
2018-04-14T04:21:12.507Z,21.53
2018-04-14T04:23:52.059Z,20.17
2018-04-14T04:26:19.579Z,18.80
2018-04-14T04:28:47.094Z,18.97
2018-04-14T04:31:14.727Z,17.53
2018-04-14T04:33:42.252Z,16.83
2018-04-14T04:36:09.775Z,16.90
2018-04-14T04:38:37.307Z,16.97
2018-04-14T04:41:04.862Z,17.93
2018-04-14T04:43:32.422Z,19.63
2018-04-14T04:45:59.940Z,20.30
2018-04-14T04:48:27.505Z,21.70
2018-04-14T04:50:55.064Z,21.87
2018-04-14T04:53:22.632Z,24.10
2018-04-14T04:55:50.152Z,25.73
2018-04-14T04:58:17.680Z,26.30
2018-04-14T05:00:45.211Z,28.67
2018-04-14T05:03:12.727Z,29.10
2018-04-14T05:05:40.353Z,28.80
2018-04-14T05:08:07.924Z,31.77
2018-04-14T05:10:35.444Z,31.40
2018-04-14T05:13:03.041Z,30.53
2018-04-14T05:15:30.604Z,32.97
2018-04-14T05:17:58.165Z,32.50
2018-04-14T05:20:25.691Z,33.93
2018-04-14T05:22:53.213Z,33.63
2018-04-14T05:25:20.831Z,35.43
2018-04-14T05:27:48.347Z,35.63
2018-04-14T05:30:15.895Z,34.80
2018-04-14T05:32:43.514Z,33.73
2018-04-14T05:35:11.077Z,35.00
2018-04-14T05:37:38.599Z,34.40
2018-04-14T05:40:06.190Z,34.97
2018-04-14T05:42:33.734Z,33.57
2018-04-14T05:45:01.321Z,32.37
2018-04-14T05:47:28.881Z,31.00
2018-04-14T05:49:56.402Z,32.03
2018-04-14T05:52:23.973Z,32.30
2018-04-14T05:54:51.551Z,31.70
2018-04-14T05:57:19.128Z,31.37
2018-04-14T05:59:46.790Z,30.83
2018-04-14T06:02:14.334Z,30.33
2018-04-14T06:04:41.896Z,30.07
2018-04-14T06:07:09.471Z,29.27
2018-04-14T06:09:37.000Z,31.13
2018-04-14T06:12:04.529Z,29.83
2018-04-14T06:14:32.144Z,30.27
2018-04-14T06:16:59.711Z,30.50
2018-04-14T06:19:27.265Z,27.00
2018-04-14T06:21:54.799Z,28.43
2018-04-14T06:24:22.357Z,29.47
2018-04-14T06:26:49.946Z,28.70
2018-04-14T06:29:17.467Z,28.67
2018-04-14T06:31:45.022Z,30.37
2018-04-14T06:34:12.553Z,31.40
2018-04-14T06:36:40.124Z,32.63
2018-04-14T06:39:07.750Z,33.60
2018-04-14T06:41:35.275Z,32.70
2018-04-14T06:44:02.871Z,34.50
2018-04-14T06:46:30.431Z,33.97
2018-04-14T06:48:57.990Z,35.80
2018-04-14T06:51:25.553Z,36.67
2018-04-14T06:53:53.079Z,37.37
2018-04-14T06:56:20.656Z,36.80
2018-04-14T06:58:48.334Z,39.30
2018-04-14T07:01:15.991Z,40.30
2018-04-14T07:03:43.552Z,39.40
2018-04-14T07:06:11.072Z,40.63
2018-04-14T07:08:38.675Z,42.50
2018-04-14T07:11:06.232Z,42.37
2018-04-14T07:13:33.762Z,43.50
2018-04-14T07:16:01.343Z,42.90
2018-04-14T07:18:28.872Z,42.23
2018-04-14T07:20:56.428Z,42.10
2018-04-14T07:23:23.988Z,41.40
2018-04-14T07:25:51.564Z,42.20
2018-04-14T07:28:19.124Z,41.33
2018-04-14T07:30:46.670Z,39.97
2018-04-14T07:33:14.278Z,41.20
2018-04-14T07:35:41.792Z,41.37
2018-04-14T07:38:09.351Z,41.40
2018-04-14T07:40:36.884Z,41.67
2018-04-14T07:43:04.403Z,42.27
2018-04-14T07:45:31.975Z,44.20
2018-04-14T07:47:59.535Z,44.47
2018-04-14T07:50:27.061Z,42.93
2018-04-14T07:52:54.612Z,45.33
2018-04-14T07:55:22.203Z,44.83
2018-04-14T07:57:49.731Z,46.60
2018-04-14T08:00:17.303Z,46.73
2018-04-14T08:02:44.821Z,44.77
2018-04-14T08:05:12.354Z,48.63
2018-04-14T08:07:39.881Z,48.43
2018-04-14T08:10:07.449Z,48.33
2018-04-14T08:12:34.962Z,49.73
2018-04-14T08:15:02.492Z,49.70
2018-04-14T08:17:30.039Z,51.23
2018-04-14T08:19:57.567Z,49.97
2018-04-14T08:22:25.107Z,49.67
2018-04-14T08:24:52.728Z,49.87
2018-04-14T08:27:20.247Z,51.07
2018-04-14T08:29:47.784Z,50.70
2018-04-14T08:32:15.448Z,52.10
2018-04-14T08:34:43.093Z,51.80
2018-04-14T08:37:10.707Z,50.87
2018-04-14T08:39:38.232Z,51.57
2018-04-14T08:42:05.756Z,49.07
2018-04-14T08:44:33.751Z,50.63
2018-04-14T08:47:01.387Z,51.10
2018-04-14T08:49:28.913Z,49.93
2018-04-14T08:51:56.460Z,50.53
2018-04-14T08:54:24.008Z,51.47
2018-04-14T08:56:51.544Z,49.57
2018-04-14T08:59:19.170Z,47.67
2018-04-14T09:01:46.746Z,51.17
2018-04-14T09:04:14.268Z,49.83
2018-04-14T09:06:41.823Z,47.00
2018-04-14T09:09:09.472Z,47.60
2018-04-14T09:11:36.986Z,47.57
2018-04-14T09:14:04.549Z,45.60
2018-04-14T09:16:32.102Z,45.83
2018-04-14T09:18:59.631Z,44.93
2018-04-14T09:21:27.189Z,44.90
2018-04-14T09:23:54.716Z,43.00
2018-04-14T09:26:22.264Z,41.70
2018-04-14T09:28:49.792Z,41.33
2018-04-14T09:31:17.322Z,40.33
2018-04-14T09:33:44.892Z,38.63
2018-04-14T09:36:12.486Z,38.27
2018-04-14T09:38:40.047Z,37.67
2018-04-14T09:41:07.577Z,34.67
2018-04-14T09:43:35.133Z,35.13
2018-04-14T09:46:02.659Z,35.07
2018-04-14T09:48:30.276Z,33.67
2018-04-14T09:50:57.802Z,32.27
2018-04-14T09:53:25.334Z,30.83
2018-04-14T09:55:52.964Z,29.97
2018-04-14T09:58:20.486Z,28.37
2018-04-14T10:00:53.643Z,28.37
2018-04-14T10:03:23.913Z,26.60
2018-04-14T10:05:51.440Z,28.23
2018-04-14T10:08:19.064Z,26.47
2018-04-14T10:10:46.621Z,29.03
2018-04-14T10:13:14.171Z,26.73
2018-04-14T10:15:41.731Z,27.90
2018-04-14T10:18:09.295Z,27.23
2018-04-14T10:20:36.860Z,28.10
2018-04-14T10:23:04.720Z,27.23
2018-04-14T10:25:32.260Z,26.20
2018-04-14T10:27:59.775Z,27.30
2018-04-14T10:30:27.399Z,25.37
2018-04-14T10:32:54.959Z,26.23
2018-04-14T10:35:22.514Z,24.70
2018-04-14T10:37:50.174Z,24.70
2018-04-14T10:40:17.760Z,25.30
2018-04-14T10:42:45.392Z,24.23
2018-04-14T10:45:12.923Z,24.87
2018-04-14T10:47:40.525Z,24.83
2018-04-14T10:50:08.109Z,24.30
2018-04-14T10:52:35.828Z,25.53
2018-04-14T10:55:03.368Z,26.03
2018-04-14T10:57:30.897Z,25.03
2018-04-14T10:59:58.545Z,25.13
2018-04-14T11:02:26.105Z,25.40
2018-04-14T11:04:53.631Z,24.40
2018-04-14T11:07:21.878Z,23.20
2018-04-14T11:09:49.418Z,23.77
2018-04-14T11:12:17.371Z,24.17
2018-04-14T11:14:47.739Z,23.70
2018-04-14T11:20:03.092Z,23.37
2018-04-14T11:22:30.617Z,22.90
2018-04-14T11:24:58.153Z,23.50
2018-04-14T11:27:25.684Z,20.93
2018-04-14T11:29:53.215Z,22.47
2018-04-14T11:32:20.748Z,22.03
2018-04-14T11:34:48.296Z,21.57
2018-04-14T11:37:15.834Z,21.80
2018-04-14T11:39:43.373Z,22.03
2018-04-14T11:42:10.897Z,22.17
2018-04-14T11:44:38.429Z,22.87
2018-04-14T11:47:05.963Z,21.23
2018-04-14T11:49:33.489Z,21.83
2018-04-14T11:52:01.033Z,23.03
2018-04-14T11:54:28.563Z,21.23
2018-04-14T11:56:56.085Z,22.53
2018-04-14T11:59:23.609Z,22.73
2018-04-14T12:01:51.138Z,23.00
2018-04-14T12:04:18.660Z,22.80
2018-04-14T12:06:46.191Z,23.53
2018-04-14T12:09:13.715Z,23.93
2018-04-14T12:11:41.251Z,25.67
2018-04-14T12:14:08.765Z,25.30
2018-04-14T12:16:36.293Z,25.30
2018-04-14T12:19:03.836Z,27.33
2018-04-14T12:21:31.370Z,27.20
2018-04-14T12:23:58.900Z,27.30
2018-04-14T12:26:26.424Z,27.23
2018-04-14T12:28:53.953Z,28.10
2018-04-14T12:31:21.480Z,28.03
2018-04-14T12:33:49.043Z,29.47
2018-04-14T12:36:16.637Z,29.03
2018-04-14T12:38:44.165Z,30.17
2018-04-14T12:41:11.691Z,30.17
2018-04-14T12:43:39.245Z,30.43
2018-04-14T12:46:06.773Z,29.73
2018-04-14T12:48:34.331Z,30.17
2018-04-14T12:51:01.865Z,30.87
2018-04-14T12:53:29.384Z,31.00
2018-04-14T12:55:56.924Z,31.00
2018-04-14T12:58:24.464Z,29.50
2018-04-14T13:00:52.023Z,28.63
2018-04-14T13:03:19.584Z,29.03
2018-04-14T13:05:47.134Z,26.73
2018-04-14T13:08:14.675Z,25.87
2018-04-14T13:10:42.269Z,26.40
2018-04-14T13:13:09.899Z,26.20
2018-04-14T13:15:37.436Z,26.77
2018-04-14T13:18:04.980Z,26.37
2018-04-14T13:20:32.648Z,27.83
2018-04-14T13:23:00.279Z,27.80
2018-04-14T13:25:27.805Z,28.10
2018-04-14T13:27:55.337Z,30.57
2018-04-14T13:30:22.869Z,29.40
2018-04-14T13:32:50.413Z,30.17
2018-04-14T13:35:17.971Z,31.47
2018-04-14T13:37:45.503Z,31.07
2018-04-14T13:40:13.088Z,31.33
2018-04-14T13:42:40.688Z,31.30
2018-04-14T13:45:09.137Z,32.80
2018-04-14T13:47:36.850Z,33.60
2018-04-14T13:50:04.766Z,34.03
2018-04-14T13:52:32.436Z,31.27
2018-04-14T13:55:00.204Z,32.27
2018-04-14T13:57:28.161Z,33.17
2018-04-14T13:59:55.823Z,33.53
2018-04-14T14:02:23.350Z,32.30
2018-04-14T14:04:50.891Z,31.37
2018-04-14T14:07:18.812Z,32.27
2018-04-14T14:09:48.862Z,31.47
2018-04-14T14:12:16.493Z,32.33
2018-04-14T14:14:44.016Z,31.53
2018-04-14T14:17:11.611Z,31.73
2018-04-14T14:19:39.229Z,31.20
2018-04-14T14:22:07.243Z,32.90
2018-04-14T14:24:34.905Z,33.00
2018-04-14T14:27:02.432Z,33.50
2018-04-14T14:43:32.259Z,24.57
2018-04-14T14:45:59.837Z,24.83
2018-04-14T14:48:28.525Z,25.27
2018-04-14T14:50:56.024Z,26.23
2018-04-14T14:53:23.581Z,28.07
2018-04-14T14:55:51.114Z,27.70
2018-04-14T14:58:18.636Z,27.30
2018-04-14T15:00:46.173Z,27.63
2018-04-14T15:03:13.801Z,26.10
2018-04-14T15:05:41.337Z,27.13
2018-04-14T15:08:08.863Z,26.20
2018-04-14T15:10:36.458Z,26.00
2018-04-14T15:13:03.993Z,26.30
2018-04-14T15:15:31.536Z,26.63
2018-04-14T15:17:59.132Z,25.90
2018-04-14T15:20:26.699Z,26.57
2018-04-14T15:22:54.218Z,24.97
2018-04-14T15:25:21.760Z,25.93
2018-04-14T15:27:49.376Z,24.33
2018-04-14T15:30:16.903Z,23.87
2018-04-14T15:32:44.431Z,24.97
2018-04-14T15:35:11.957Z,24.27
2018-04-14T15:37:39.508Z,24.63
2018-04-14T15:40:07.057Z,22.97
2018-04-14T15:42:34.583Z,24.00
2018-04-14T15:45:02.135Z,22.63
2018-04-14T15:47:29.689Z,23.07
2018-04-14T15:49:57.311Z,21.63
2018-04-14T15:52:24.872Z,23.07
2018-04-14T15:54:52.400Z,23.13
2018-04-14T15:57:19.920Z,22.67
2018-04-14T15:59:47.451Z,24.93
2018-04-14T16:02:14.972Z,26.17
2018-04-14T16:04:42.564Z,26.67
2018-04-14T16:07:10.096Z,26.50
2018-04-14T16:09:37.623Z,26.10
2018-04-14T16:12:05.156Z,25.33
2018-04-14T16:14:32.705Z,25.67
2018-04-14T16:17:00.258Z,25.57
2018-04-14T16:19:27.792Z,24.90
2018-04-14T16:21:55.334Z,25.57
2018-04-14T16:24:22.906Z,24.93
2018-04-14T16:26:50.451Z,25.27
2018-04-14T16:29:17.987Z,24.37
2018-04-14T16:31:45.525Z,23.77
2018-04-14T16:34:13.057Z,24.03
2018-04-14T16:36:40.646Z,23.80
2018-04-14T16:39:08.205Z,23.33
2018-04-14T16:41:35.727Z,25.70
2018-04-14T16:44:03.259Z,23.50
2018-04-14T16:46:30.800Z,25.73
2018-04-14T16:48:58.342Z,24.73
2018-04-14T16:51:25.876Z,25.10
2018-04-14T16:53:53.412Z,22.17
2018-04-14T16:56:20.951Z,23.70
2018-04-14T16:58:48.480Z,24.43
2018-04-14T17:01:16.052Z,23.60
2018-04-14T17:03:43.571Z,22.93
2018-04-14T17:06:11.102Z,22.03
2018-04-14T17:08:38.648Z,23.30
2018-04-14T17:11:06.280Z,25.07
2018-04-14T17:13:33.811Z,23.23
2018-04-14T17:16:01.333Z,23.13
2018-04-14T17:18:28.861Z,22.77
2018-04-14T17:20:56.418Z,24.27
2018-04-14T17:23:23.967Z,24.67
2018-04-14T17:25:51.511Z,22.83
2018-04-14T17:28:19.033Z,24.60
2018-04-14T17:30:46.571Z,24.17
2018-04-14T17:33:14.100Z,24.10
2018-04-14T17:35:41.677Z,24.90
2018-04-14T17:38:09.256Z,24.00
2018-04-14T17:40:36.898Z,24.27
2018-04-14T17:43:04.425Z,25.17
2018-04-14T17:45:32.003Z,36.50
2018-04-14T17:47:59.574Z,34.27
2018-04-14T17:50:27.123Z,31.37
2018-04-14T17:52:54.668Z,25.27
2018-04-14T17:55:22.245Z,25.03
2018-04-14T17:57:49.782Z,24.87
2018-04-14T18:00:17.378Z,27.43
2018-04-14T18:02:45.229Z,28.67
2018-04-14T18:05:12.774Z,29.90
2018-04-14T18:07:40.322Z,28.40
2018-04-14T18:10:08.183Z,28.67
2018-04-14T18:12:35.759Z,30.17
2018-04-14T18:15:03.275Z,30.20
2018-04-14T18:17:30.809Z,29.33
2018-04-14T18:19:58.338Z,29.40
2018-04-14T18:22:25.885Z,30.90
2018-04-14T18:24:53.448Z,30.93
2018-04-14T18:27:21.017Z,30.33
2018-04-14T18:29:48.594Z,32.17
2018-04-14T18:32:16.120Z,32.30
2018-04-14T18:34:43.651Z,33.00
2018-04-14T18:37:11.188Z,33.50
2018-04-14T18:39:38.776Z,33.93
2018-04-14T18:42:06.411Z,35.87
2018-04-14T18:44:33.934Z,34.33
2018-04-14T18:47:01.456Z,34.97
2018-04-14T18:49:29.089Z,36.57
2018-04-14T18:51:56.621Z,34.90
2018-04-14T18:54:24.148Z,34.97
2018-04-14T18:56:51.737Z,34.17
2018-04-14T18:59:19.260Z,36.13
2018-04-14T19:01:46.825Z,36.60
2018-04-14T19:04:14.347Z,35.93
2018-04-14T19:06:41.873Z,36.27
2018-04-14T19:09:09.436Z,38.37
2018-04-14T19:11:36.960Z,39.40
2018-04-14T19:14:04.490Z,39.67
2018-04-14T19:16:32.031Z,40.70
2018-04-14T19:18:59.608Z,39.13
2018-04-14T19:21:27.165Z,38.70
2018-04-14T19:23:54.687Z,41.10
2018-04-14T19:26:22.289Z,38.83
2018-04-14T19:28:49.817Z,39.17
2018-04-14T19:31:17.338Z,40.73
2018-04-14T19:33:44.876Z,41.07
2018-04-14T19:36:12.526Z,40.00
2018-04-14T19:38:40.048Z,40.57
2018-04-14T19:41:08.471Z,42.57
2018-04-14T19:43:36.009Z,43.70
2018-04-14T19:46:03.553Z,45.83
2018-04-14T19:48:31.096Z,48.17
2018-04-14T19:50:58.807Z,48.27
2018-04-14T19:53:26.370Z,51.37
2018-04-14T19:55:53.895Z,51.70
2018-04-14T19:58:21.485Z,49.83
2018-04-14T20:00:50.099Z,52.00
2018-04-14T20:03:18.452Z,52.97
2018-04-14T20:05:46.010Z,52.23
2018-04-14T20:08:13.672Z,52.37
2018-04-14T20:10:41.333Z,52.00
2018-04-14T20:13:08.872Z,51.27
2018-04-14T20:15:36.512Z,50.53
2018-04-14T20:18:04.039Z,50.33
2018-04-14T20:20:31.675Z,51.97
2018-04-14T20:22:59.202Z,50.37
2018-04-14T20:25:26.725Z,52.90
2018-04-14T20:27:54.490Z,49.47
2018-04-14T20:30:22.017Z,51.40
2018-04-14T20:32:49.563Z,51.87
2018-04-14T20:35:17.112Z,52.67
2018-04-14T20:37:44.653Z,52.93
2018-04-14T20:40:12.209Z,50.33
2018-04-14T20:42:39.747Z,52.13
2018-04-14T20:45:07.374Z,50.37
2018-04-14T20:47:34.909Z,49.97
2018-04-14T20:50:02.433Z,50.87
2018-04-14T20:52:29.984Z,51.30
2018-04-14T20:54:57.682Z,49.90
2018-04-14T20:57:25.253Z,47.47
2018-04-14T20:59:53.169Z,48.03
2018-04-14T21:02:20.751Z,48.00
2018-04-14T21:04:48.291Z,47.83
2018-04-14T21:07:15.822Z,45.33
2018-04-14T21:09:43.387Z,45.50
2018-04-14T21:12:10.947Z,42.83
2018-04-14T21:14:38.476Z,43.87
2018-04-14T21:17:05.999Z,47.97
2018-04-14T21:19:33.522Z,46.87
2018-04-14T21:22:01.233Z,47.37
2018-04-14T21:24:28.805Z,45.43
2018-04-14T21:26:56.391Z,45.40
2018-04-14T21:29:23.923Z,44.53
2018-04-14T21:31:51.523Z,43.03
2018-04-14T21:34:19.056Z,44.23
2018-04-14T21:36:46.647Z,44.13
2018-04-14T21:39:14.172Z,45.07
2018-04-14T21:41:41.767Z,44.23
2018-04-14T21:44:09.294Z,43.87
2018-04-14T21:46:36.818Z,44.97
2018-04-14T21:49:04.441Z,43.70
2018-04-14T21:51:31.978Z,44.47
2018-04-14T21:53:59.501Z,50.45
2018-04-14T21:56:27.024Z,47.57
2018-04-14T21:58:54.549Z,45.00
2018-04-14T22:01:22.068Z,44.87
2018-04-14T22:03:49.600Z,45.33
2018-04-14T22:06:17.123Z,44.87
2018-04-14T22:08:44.707Z,45.60
2018-04-14T22:11:12.247Z,44.97
2018-04-14T22:13:39.839Z,47.80
2018-04-14T22:16:07.373Z,46.47
2018-04-14T22:18:34.888Z,47.30
2018-04-14T22:21:02.418Z,47.70
2018-04-14T22:23:29.978Z,49.47
2018-04-14T22:25:57.540Z,49.87
2018-04-14T22:28:25.094Z,46.97
2018-04-14T22:30:52.611Z,48.17
2018-04-14T22:33:20.223Z,49.47
2018-04-14T22:35:47.752Z,51.00
2018-04-14T22:38:15.304Z,49.17
2018-04-14T22:40:42.899Z,50.60
2018-04-14T22:43:10.461Z,51.17
2018-04-14T22:45:37.988Z,50.90
2018-04-14T22:48:05.574Z,50.67
2018-04-14T22:50:33.108Z,52.87
2018-04-14T22:53:00.702Z,53.23
2018-04-14T22:55:28.257Z,51.93
2018-04-14T22:57:55.815Z,52.63
2018-04-14T23:00:23.348Z,51.77
2018-04-14T23:02:50.883Z,53.17
2018-04-14T23:05:18.419Z,53.30
2018-04-14T23:07:45.959Z,51.27
2018-04-14T23:10:13.615Z,51.53
2018-04-14T23:12:41.149Z,52.77
2018-04-14T23:15:08.738Z,52.20
2018-04-14T23:17:36.293Z,52.10
2018-04-14T23:20:03.826Z,51.07
2018-04-14T23:22:31.357Z,53.63
2018-04-14T23:24:58.904Z,53.97
2018-04-14T23:27:26.434Z,50.97
2018-04-14T23:29:53.959Z,50.60
2018-04-14T23:32:21.549Z,51.80
2018-04-14T23:34:49.082Z,52.13
2018-04-14T23:37:16.672Z,52.97
2018-04-14T23:39:44.228Z,51.90
2018-04-14T23:42:11.793Z,51.70
2018-04-14T23:44:39.319Z,51.07
2018-04-14T23:47:06.915Z,50.83
2018-04-14T23:49:34.445Z,52.47
2018-04-14T23:52:01.977Z,50.37
2018-04-14T23:54:29.516Z,51.90
2018-04-14T23:56:57.048Z,52.50
2018-04-14T23:59:24.580Z,50.13
